Home > Products > Valid Products > MTR

000
SAUS46 KPDT 240458
MTRMEH
METAR KMEH 240456Z AUTO 00000KT 10SM -RA OVC046 06/03 A2986 RMK AO2
RAB27 SLP117 P0000 T00560033





000
SAUS46 KPDT 240358
MTRMEH
METAR KMEH 240356Z AUTO 00000KT 10SM SCT060 OVC075 04/04 A2986 RMK
AO2 SLP124 T00440039





000
SAUS46 KPDT 240257
MTRMEH
METAR KMEH 240256Z AUTO 00000KT 10SM BKN080 BKN090 OVC110 05/04
A2985 RMK AO2 SLP122 60000 T00500044 58016





000
SAUS46 KPDT 240157
MTRMEH
METAR KMEH 240156Z AUTO 00000KT 10SM FEW070 OVC085 06/05 A2987 RMK
AO2 SLP127 T00610050





000
SAUS46 KPDT 240057
MTRMEH
METAR KMEH 240056Z AUTO 00000KT 10SM CLR 06/04 A2989 RMK AO2 RAE06
SLP131 P0000 T00610044





000
SAUS46 KPDT 240009
MTRMEH
SPECI KMEH 240007Z AUTO 00000KT 10SM FEW014 BKN034 OVC049 05/03
A2989 RMK AO2 RAE06 P0000 T00500033





000
SAUS46 KPDT 232357
MTRMEH
METAR KMEH 232356Z AUTO 00000KT 4SM -RA BR FEW014 OVC023 04/04 A2990
RMK AO2 RAB02 SLP140 P0013 60017 T00440039 10078 20039 55003





000
SAUS46 KPDT 232350
MTRMEH
SPECI KMEH 232349Z AUTO 00000KT 3SM RA BR FEW014 OVC020 04/03 A2991
RMK AO2 RAB02 P0011 T00440033





000
SAUS46 KPDT 232335
MTRMEH
SPECI KMEH 232334Z AUTO VRB04KT 2SM RA BR FEW012 OVC020 04/03 A2990
RMK AO2 RAB02 P0008 T00440033





000
SAUS46 KPDT 232323
MTRMEH
SPECI KMEH 232322Z AUTO VRB05KT 1 3/4SM RA BR OVC022 05/03 A2990 RMK
AO2 RAB02 P0004 T00500028





000
SAUS46 KPDT 232317
MTRMEH
SPECI KMEH 232313Z AUTO VRB04KT 3SM RA BKN022 BKN055 OVC100 06/03
A2990 RMK AO2 RAB02 P0001 T00610033





000
SAUS46 KPDT 232257
MTRMEH
METAR KMEH 232256Z AUTO VRB03KT 10SM FEW033 BKN080 OVC100 07/02
A2988 RMK AO2 RAB10E43 SLP131 P0000 T00720022





000
SAUS46 KPDT 232157
MTRMEH
METAR KMEH 232156Z AUTO 00000KT 10SM SCT050 BKN110 08/03 A2989 RMK
AO2 RAE12 SLP132 P0000 T00780028





000
SAUS46 KPDT 232113
MTRMEH
SPECI KMEH 232110Z AUTO 00000KT 10SM -RA FEW015 BKN036 06/03 A2990
RMK AO2 P0000 T00610033





000
SAUS46 KPDT 232057
MTRMEH
METAR KMEH 232056Z AUTO VRB04KT 8SM -RA FEW014 BKN028 OVC036 06/03
A2991 RMK AO2 SLP146 P0002 60004 T00560028 51000





000
SAUS46 KPDT 232050
MTRMEH
SPECI KMEH 232046Z AUTO 00000KT 10SM -RA FEW012 BKN033 OVC042 06/03
A2991 RMK AO2 P0001 T00560028





000
SAUS46 KPDT 232020
MTRMEH
SPECI KMEH 232019Z AUTO 00000KT 6SM -RA BR FEW013 BKN028 OVC037
05/03 A2992 RMK AO2 P0001 T00500028





000
SAUS46 KPDT 231957
MTRMEH
METAR KMEH 231956Z AUTO 00000KT 10SM -RA SCT040 BKN047 OVC055 06/02
A2991 RMK AO2 SLP143 P0002 T00610022





000
SAUS46 KPDT 231942
MTRMEH
SPECI KMEH 231941Z AUTO VRB03KT 10SM -RA BKN035 BKN044 OVC055 06/03
A2991 RMK AO2 P0002 T00560028





000
SAUS46 KPDT 231923
MTRMEH
SPECI KMEH 231922Z AUTO VRB04KT 9SM -RA BKN025 OVC035 04/02 A2992
RMK AO2 P0001 T00440022





000
SAUS46 KPDT 231857
MTRMEH
METAR KMEH 231856Z AUTO VRB04KT 8SM -RA BKN030 OVC036 05/01 A2992
RMK AO2 RAB04 SLP151 P0000 T00500011





000
SAUS46 KPDT 231758
MTRMEH
METAR KMEH 231756Z AUTO VRB03KT 10SM BKN033 OVC044 06/00 A2991 RMK
AO2 RAB31E42 SLP143 P0000 60010 T00610000 10067 20006 55000





000
SAUS46 KPDT 231658
MTRMEH
METAR KMEH 231656Z AUTO VRB04KT 10SM BKN033 OVC042 05/01 A2991 RMK
AO2 UPB1557E01RAB40E50SNE1557 SLP142 P0000 T00500006





000
SAUS46 KPDT 231557
MTRMEH
METAR KMEH 231556Z AUTO 00000KT 7SM -SN OVC031 02/01 A2991 RMK AO2
SLP145 P0002 T00170006





000
SAUS46 KPDT 231553
MTRMEH
SPECI KMEH 231551Z AUTO 00000KT 5SM -SN BR BKN031 OVC035 02/00 A2991
RMK AO2 P0002





000
SAUS46 KPDT 231524
MTRMEH
SPECI KMEH 231521Z AUTO 00000KT 3SM -SN BR FEW018 OVC027 01/00 A2992
RMK AO2 P0001 T00110000





000
SAUS46 KPDT 231516
MTRMEH
SPECI KMEH 231512Z AUTO 00000KT 1 1/4SM -SN BR SCT014 OVC027 01/00
A2991 RMK AO2 P0001 T00110000





000
SAUS46 KPDT 231500
MTRMEH
METAR KMEH 231456Z AUTO 00000KT 1/2SM -SN FG VV012 01/00 A2991 RMK
AO2 SLP146 P0007 60008 T00060000 53008





000
SAUS46 KPDT 231437
MTRMEH
SPECI KMEH 231436Z AUTO 00000KT 1/2SM SN FG VV010 01/00 A2991 RMK
AO2 P0005 T00060000





000
SAUS46 KPDT 231431
MTRMEH
SPECI KMEH 231430Z AUTO 00000KT 1/4SM SN FG VV009 01/00 A2991 RMK
AO2 P0004 T00060000





000
SAUS46 KPDT 231419
MTRMEH
SPECI KMEH 231418Z AUTO 00000KT 1/2SM SN FG BKN012 OVC025 01/M01
A2991 RMK AO2 P0002 T00111006





000
SAUS46 KPDT 231412
MTRMEH
SPECI KMEH 231411Z AUTO 00000KT 1/2SM SN BKN016 OVC025 02/M01 A2990
RMK AO2 P0001 T00171011





000
SAUS46 KPDT 231359
MTRMEH
METAR KMEH 231356Z AUTO 00000KT 1 3/4SM -SN OVC024 02/M01 A2990 RMK
AO2 SNB1259E11B28 SLP136 P0000 T00171011





000
SAUS46 KPDT 231354
MTRMEH
SPECI KMEH 231353Z AUTO 00000KT 2SM -SN OVC024 02/M01 A2989 RMK AO2
SNB1259E11B28 P0000





000
SAUS46 KPDT 231345
MTRMEH
SPECI KMEH 231344Z AUTO 00000KT 1 3/4SM -SN OVC024 02/M01 A2990 RMK
AO2 SNB1259E11B28 P0000 T00171011





000
SAUS46 KPDT 231258
MTRMEH
METAR KMEH 231256Z AUTO 00000KT 9SM OVC026 03/M02 A2989 RMK AO2
SNB15E56 SLP130 P0001 T00281017





000
SAUS46 KPDT 231251
MTRMEH
SPECI KMEH 231249Z AUTO 00000KT 8SM -SN OVC024 02/M02 A2989 RMK AO2
SNB15 P0001 T00221017





000
SAUS46 KPDT 231244
MTRMEH
SPECI KMEH 231242Z AUTO 00000KT 2 1/2SM -SN OVC022 02/M02 A2989 RMK
AO2 SNB15 P0001 T00171017





000
SAUS46 KPDT 231237
MTRMEH
SPECI KMEH 231235Z AUTO VRB04KT 3SM -SN OVC024 02/M02 A2989 RMK AO2
SNB15 P0000 T00221017





000
SAUS46 KPDT 231157
MTRMEH
METAR KMEH 231156Z AUTO 00000KT 10SM OVC036 02/M02 A2989 RMK AO2
SLP130 60000 70019 T00221017 10022 21022 56002





000
SAUS46 KPDT 231057
MTRMEH
METAR KMEH 231056Z AUTO 00000KT 9SM OVC030 01/M01 A2989 RMK AO2
SNE0957B15E24B40E55 SLP132 P0000 T00111011





000
SAUS46 KPDT 231054
MTRMEH
SPECI KMEH 231053Z AUTO 00000KT 9SM -SN OVC030 01/M01 A2989 RMK AO2
SNE0957B15E24B40 P0000





000
SAUS46 KPDT 231045
MTRMEH
SPECI KMEH 231044Z AUTO 00000KT 8SM -SN OVC028 01/M01 A2989 RMK AO2
SNE0957B15E24B40 P0000 T00111011





000
SAUS46 KPDT 230958
MTRMEH
METAR KMEH 230956Z AUTO 00000KT 9SM -SN OVC032 00/M02 A2989 RMK AO2
SNB44 SLP135 P0000 T00001017





000
SAUS46 KPDT 230858
MTRMEH
METAR KMEH 230856Z AUTO 00000KT 10SM SCT055 OVC070 M01/M03 A2989 RMK
AO2 SLP137 T10111028 58002





000
SAUS46 KPDT 230757
MTRMEH
METAR KMEH 230756Z AUTO 00000KT 10SM CLR M02/M03 A2990 RMK AO2
SLP145 T10221033 400831022





000
SAUS46 KPDT 230657
MTRMEH
METAR KMEH 230656Z AUTO 00000KT 10SM CLR M02/M03 A2990 RMK AO2
SLP144 T10171033





000
SAUS46 KPDT 230558
MTRMEH
METAR KMEH 230556Z AUTO 00000KT 10SM BKN032 BKN042 OVC060 00/M02
A2990 RMK AO2 SLP143 T00001022 10083 20000 51010





000
SAUS46 KPDT 230458
MTRMEH
METAR KMEH 230456Z AUTO 00000KT 10SM BKN060 01/M02 A2990 RMK AO2
SLP141 T00111022





000
SAUS46 KPDT 230357
MTRMEH
METAR KMEH 230356Z AUTO VRB03KT 10SM FEW090 03/M02 A2989 RMK AO2
SLP138 T00281022





000
SAUS46 KPDT 230303 COR
MTRMEH
METAR KMEH 230256Z AUTO 29004KT 10SM CLR 04/M02 A2986 RMK AO2 SLP127
T00391022 53012





000
SAUS46 KPDT 230259
MTRMEH
METAR KMEH 230256Z AUTO 29004KT 10SM CLR 04/M02 A2986 RMK AO2 SLP127
T00391022 53012





000
SAUS46 KPDT 230157
MTRMEH
METAR KMEH 230156Z AUTO VRB05KT 10SM SCT039 BKN047 BKN055 06/M02
A2983 RMK AO2 SLP114 T00561017





000
SAUS46 KPDT 230057
MTRMEH
METAR KMEH 230056Z AUTO VRB04KT 10SM FEW055 07/M07 A2983 RMK AO2
SLP111 T00671067





000
SAUS46 KPDT 222357
MTRMEH
METAR KMEH 222356Z AUTO VRB05KT 10SM SCT055 08/M04 A2983 RMK AO2
SLP107 60001 T00781044 10083 20033 51008





000
SAUS46 KPDT 222257
MTRMEH
METAR KMEH 222256Z AUTO VRB04G14KT 10SM SCT050 SCT060 08/M04 A2981
RMK AO2 SLP102 T00781044





000
SAUS46 KPDT 222157
MTRMEH
METAR KMEH 222156Z AUTO VRB06G17KT 10SM FEW048 07/M04 A2982 RMK AO2
SLP105 T00721044





000
SAUS46 KPDT 222059
MTRMEH
METAR KMEH 222056Z AUTO VRB05KT 10SM CLR 06/M03 A2980 RMK AO2 SLP098
60001 T00611033 51002





000
SAUS46 KPDT 221957
MTRMEH
METAR KMEH 221956Z AUTO 27009G18KT 240V310 10SM CLR 06/M03 A2980 RMK
AO2 SLP096 T00561033





000
SAUS46 KPDT 221858
MTRMEH
METAR KMEH 221856Z AUTO VRB05KT 10SM FEW018 SCT025 BKN030 05/02
A2980 RMK AO2 RAE42 SLP097 P0001 T00500017





000
SAUS46 KPDT 221851
MTRMEH
SPECI KMEH 221849Z AUTO 29007KT 240V020 10SM FEW018 BKN030 OVC043
05/02 A2979 RMK AO2 RAE42 P0001 T00500017





000
SAUS46 KPDT 221757
MTRMEH
METAR KMEH 221756Z AUTO VRB05KT 10SM -RA FEW010 BKN025 OVC038 03/02
A2979 RMK AO2 RAE07B45SNB07E45 SLP095 P0004 60018 T00330017 10033
20017 53011





000
SAUS46 KPDT 221748
MTRMEH
SPECI KMEH 221747Z AUTO VRB03KT 9SM -RA BKN016 BKN026 OVC037 03/02
A2979 RMK AO2 RAE07B45SNB07E45 P0004 T00330017





000
SAUS46 KPDT 221737
MTRMEH
SPECI KMEH 221736Z AUTO VRB04KT 3SM -SN BR BKN014 BKN024 OVC029
02/01 A2979 RMK AO2 RAE07SNB07 P0004 T00220011





000
SAUS46 KPDT 221719
MTRMEH
SPECI KMEH 221718Z AUTO 27007KT 220V310 1 3/4SM -SN BR FEW007 OVC013
02/01 A2979 RMK AO2 RAE07SNB07 P0002 T00220011





000
SAUS46 KPDT 221714
MTRMEH
SPECI KMEH 221710Z AUTO VRB06KT 4SM -SN BR FEW007 OVC013 03/02 A2978
RMK AO2 RAE07SNB07 P0001 T00280017





000
SAUS46 KPDT 221657
MTRMEH
METAR KMEH 221656Z AUTO VRB03KT 4SM -RA BR OVC017 03/02 A2978 RMK
AO2 RAB48SNE48 SLP089 P0004 T00280017





000
SAUS46 KPDT 221629
MTRMEH
SPECI KMEH 221628Z AUTO VRB03KT 3SM -SN BR OVC015 02/01 A2978 RMK
AO2 P0003 T00220011





000
SAUS46 KPDT 221558
MTRMEH
METAR KMEH 221556Z AUTO 00000KT 2SM -SN BR OVC012 02/01 A2977 RMK
AO2 RAE47SNB47 SLP088 P0004 T00170006





000
SAUS46 KPDT 221516
MTRMEH
SPECI KMEH 221515Z AUTO 00000KT 3SM -RA BR SCT006 OVC010 02/01 A2976
RMK AO2 P0001 T00220011





000
SAUS46 KPDT 221457
MTRMEH
METAR KMEH 221456Z AUTO 00000KT 2 1/2SM -RA BR BKN007 OVC010 02/02
A2976 RMK AO2 SLP078 P0000 60006 T00220017 51005





000
SAUS46 KPDT 221431
MTRMEH
SPECI KMEH 221430Z AUTO 00000KT 10SM -RA BKN007 OVC013 02/01 A2975
RMK AO2 P0000 T00220011





000
SAUS46 KPDT 221357
MTRMEH
METAR KMEH 221356Z AUTO 00000KT 10SM -RA SCT006 OVC012 02/01 A2976
RMK AO2 SNB1257E10 SLP073 P0003 T00220011





000
SAUS46 KPDT 221257
MTRMEH
METAR KMEH 221256Z AUTO 00000KT 4SM -RA BR BKN005 OVC012 02/01 A2976
RMK AO2 RAB25 SLP071 P0003 T00220011





000
SAUS46 KPDT 221157
MTRMEH
METAR KMEH 221156Z AUTO 00000KT 10SM OVC005 03/02 A2974 RMK AO2
RAE11 SLP068 P0001 60008 70008 T00330022 10083 20033 58012





000
SAUS46 KPDT 221057
MTRMEH
METAR KMEH 221056Z AUTO 00000KT 10SM -RA OVC009 04/02 A2974 RMK AO2
CIG 006V013 PRESFR SLP066 P0003 T00390022





000
SAUS46 KPDT 220957
MTRMEH
METAR KMEH 220956Z AUTO 00000KT 9SM -RA OVC006 04/03 A2978 RMK AO2
RAB10 CIG 004V009 SLP077 P0004 T00440033





000
SAUS46 KPDT 220945
MTRMEH
SPECI KMEH 220942Z AUTO VRB03KT 9SM -RA OVC006 04/04 A2978 RMK AO2
RAB10 CIG 004V009 P0003 T00440039





000
SAUS46 KPDT 220857
MTRMEH
METAR KMEH 220856Z AUTO 27005KT 10SM OVC004 05/04 A2978 RMK AO2
SLP079 60000 T00500039 55003





000
SAUS46 KPDT 220831
MTRMEH
SPECI KMEH 220830Z AUTO VRB03KT 10SM BKN004 OVC009 06/04 A2979 RMK
AO2 T00560044





000
SAUS46 KPDT 220819
MTRMEH
SPECI KMEH 220817Z AUTO VRB03KT 10SM BKN006 OVC011 06/04 A2978 RMK
AO2 CIG 004V009 T00610039





000
SAUS46 KPDT 220758
MTRMEH
METAR KMEH 220756Z AUTO 00000KT 10SM BKN011 06/04 A2978 RMK AO2
RAE03 SLP077 P0000 T00610039 401830028





000
SAUS46 KPDT 220755
MTRMEH
SPECI KMEH 220753Z AUTO 00000KT 10SM BKN011 BKN085 06/04 A2978 RMK
AO2 RAE03 P0000





000
SAUS46 KPDT 220658
MTRMEH
METAR KMEH 220656Z AUTO 00000KT 10SM -RA BKN060 BKN075 OVC100 07/04
A2979 RMK AO2 RAB25 SLP082 P0000 T00670039





000
SAUS46 KPDT 220558
MTRMEH
METAR KMEH 220556Z AUTO 00000KT 10SM BKN080 OVC100 08/03 A2982 RMK
AO2 SLP089 T00830033 10172 20072 53009





000
SAUS46 KPDT 220458
MTRMEH
METAR KMEH 220456Z AUTO 00000KT 10SM BKN090 09/04 A2980 RMK AO2
SLP085 T00890039





000
SAUS46 KPDT 220357
MTRMEH
METAR KMEH 220356Z AUTO VRB03KT 10SM OVC095 11/04 A2980 RMK AO2
SLP085 T01060039





000
SAUS46 KPDT 220258
MTRMEH
METAR KMEH 220256Z AUTO 00000KT 10SM CLR 13/M01 A2978 RMK AO2 SLP077
T01331011 56027





000
SAUS46 KPDT 220200 COR
MTRMEH
METAR KMEH 220156Z AUTO 00000KT 10SM CLR 15/M01 A2980 RMK AO2 SLP081
T01501006





000
SAUS46 KPDT 220158 COR
MTRMEH
METAR KMEH 220156Z AUTO 00000KT 10SM CLR 15/M01 A2980 RMK AO2 SLP081
T01501006





000
SAUS46 KPDT 220157
MTRMEH
METAR KMEH 220156Z AUTO 00000KT 10SM CLR 15/M01 A2980 RMK AO2 SLP081
T01501006





000
SAUS46 KPDT 220057
MTRMEH
METAR KMEH 220056Z AUTO 00000KT 10SM FEW090 17/00 A2983 RMK AO2
PRESFR SLP087 T01720000





000
SAUS46 KPDT 212358
MTRMEH
METAR KMEH 212356Z AUTO 00000KT 10SM OVC095 16/03 A2988 RMK AO2
SLP106 T01560028 10183 20133 56024





000
SAUS46 KPDT 212258
MTRMEH
METAR KMEH 212256Z AUTO 00000KT 10SM OVC095 17/01 A2989 RMK AO2
SLP112 T01670006





000
SAUS46 KPDT 212157
MTRMEH
METAR KMEH 212156Z AUTO 00000KT 10SM CLR 18/01 A2992 RMK AO2 SLP121
T01780006





000
SAUS46 KPDT 212058
MTRMEH
METAR KMEH 212056Z AUTO VRB03KT 10SM SCT110 16/01 A2995 RMK AO2
SLP139 T01560011 58018





000
SAUS46 KPDT 211958
MTRMEH
METAR KMEH 211956Z AUTO 00000KT 10SM SCT120 15/01 A2999 RMK AO2
SLP151 T01500006





000
SAUS46 KPDT 211857
MTRMEH
METAR KMEH 211856Z AUTO 00000KT 10SM OVC090 14/00 A3002 RMK AO2
SLP164 T01440000





000
SAUS46 KPDT 211757
MTRMEH
METAR KMEH 211756Z AUTO 00000KT 10SM OVC100 13/M01 A3001 RMK AO2
SLP165 T01331006 10133 20089 56004





000
SAUS46 KPDT 211658
MTRMEH
METAR KMEH 211656Z AUTO 00000KT 10SM SCT110 12/M02 A3002 RMK AO2
SLP166 T01221017





000
SAUS46 KPDT 211559
MTRMEH
METAR KMEH 211556Z AUTO 00000KT 10SM OVC110 11/M02 A3002 RMK AO2
SLP168 T01061017





000
SAUS46 KPDT 211458
MTRMEH
METAR KMEH 211456Z AUTO 00000KT 10SM SCT110 10/M03 A3003 RMK AO2
SLP166 T01001033 56011





000
SAUS46 KPDT 211358
MTRMEH
METAR KMEH 211356Z AUTO 00000KT 10SM CLR 09/M03 A3003 RMK AO2 SLP164
T00941033





000
SAUS46 KPDT 211301 COR
MTRMEH
METAR KMEH 211256Z AUTO VRB03KT 10SM CLR 09/M03 A3004 RMK AO2 SLP168
T00891028





000
SAUS46 KPDT 211300 COR
MTRMEH
METAR KMEH 211256Z AUTO VRB03KT 10SM CLR 09/M03 A3004 RMK AO2 SLP168
T00891028





000
SAUS46 KPDT 211158
MTRMEH
METAR KMEH 211156Z AUTO VRB03KT 10SM CLR 09/M03 A3006 RMK AO2 SLP173
T00941033 10094 20022 58019





000
SAUS46 KPDT 211058
MTRMEH
METAR KMEH 211056Z AUTO 00000KT 10SM CLR 09/M03 A3009 RMK AO2 SLP182
T00891028





000
SAUS46 KPDT 210957
MTRMEH
METAR KMEH 210956Z AUTO 00000KT 10SM CLR 08/M02 A3011 RMK AO2 SLP190
T00781022





000
SAUS46 KPDT 210858
MTRMEH
METAR KMEH 210856Z AUTO 00000KT 10SM CLR 05/M01 A3012 RMK AO2 SLP201
T00501011 58011





000
SAUS46 KPDT 210758
MTRMEH
METAR KMEH 210756Z AUTO 00000KT 10SM CLR 05/00 A3015 RMK AO2 SLP210
T00500000 401560000





000
SAUS46 KPDT 210657
MTRMEH
METAR KMEH 210656Z AUTO 00000KT 10SM CLR 03/00 A3016 RMK AO2 SLP220
T00280000





000
SAUS46 KPDT 210558
MTRMEH
METAR KMEH 210556Z AUTO 00000KT 10SM CLR 03/01 A3016 RMK AO2 SLP221
T00330011 10156 20028 58006





    US Dept of Commerce
    National Oceanic and Atmospheric Administration
    National Weather Service
    1325 East West Highway
    Silver Spring, MD 20910
    Page Author: NWS Internet Services Team
Disclaimer
Information Quality
Credits
Glossary
Privacy Policy
Freedom of Information Act (FOIA)
About Us
Career Opportunities